Portada
METAR-TAF:

METAR-TAF

Aeropuertos :

Noshahr, Irán

latitud: 36-39-48N, longitud: 051-27-53E, altitud: 0 m

Observación

El informe se hizo hace 25 minutos, a las 06:00 UTC
Viento calma
Temperatura 10°C
Humedad 93%
Presión 1015 hPa
Visibilidad: 3000 m
Cielo nuboso a una altura de 800 ft
Cielo cubierto a una altura de 7000 ft
llovizna ligera

METAR: OINN 250600Z 00000KT 3000 -DZ BKN008 OVC070 10/09 Q1015

Hora: 10:55 (06:25 UTC)


TAF: falta

Observaciones y pronósticos meteorológicos de más de 4000 aeropuertos (mensajes METAR y TAF).

Los puntos amarillos y rojos representan las estaciones disponibles.

Ponga el ratón en el punto deseado para ver el nombre de la estación.

Haga clic para ver las observaciones y los pronósticos meteorológicos.

Para cambiar el mapa : haga clic en los botones verdes con una cruz de color negro para hacer un zoom, en el botón verde con un guión para alejar o en las flechas verdes para mapas adyacentes.


METAR-TAF: